createdAt,value
2018-01-25T00:00:11.438Z,1009.91
2018-01-25T00:01:38.799Z,1009.94
2018-01-25T00:03:06.128Z,1009.92
2018-01-25T00:04:33.243Z,1009.97
2018-01-25T00:06:00.501Z,1009.98
2018-01-25T00:07:27.966Z,1010.01
2018-01-25T00:08:55.115Z,1009.96
2018-01-25T00:10:22.208Z,1009.87
2018-01-25T00:11:49.684Z,1009.88
2018-01-25T00:13:17.019Z,1009.87
2018-01-25T00:14:44.585Z,1009.80
2018-01-25T00:16:11.564Z,1009.78
2018-01-25T00:17:38.694Z,1009.73
2018-01-25T00:19:05.902Z,1009.74
2018-01-25T00:20:33.246Z,1009.76
2018-01-25T00:22:00.482Z,1009.79
2018-01-25T00:23:27.851Z,1009.85
2018-01-25T00:24:55.227Z,1009.86
2018-01-25T00:26:22.618Z,1009.90
2018-01-25T00:27:49.491Z,1009.93
2018-01-25T00:29:16.829Z,1009.94
2018-01-25T00:30:43.697Z,1009.92
2018-01-25T00:32:10.900Z,1009.92
2018-01-25T00:33:38.237Z,1010.06
2018-01-25T00:35:05.304Z,1010.03
2018-01-25T00:36:32.590Z,1010.06
2018-01-25T00:37:59.574Z,1010.01
2018-01-25T00:39:26.685Z,1010.02
2018-01-25T00:40:53.117Z,1010.07
2018-01-25T00:42:20.603Z,1010.13
2018-01-25T00:43:47.889Z,1010.14
2018-01-25T00:45:14.822Z,1010.13
2018-01-25T00:46:41.807Z,1010.14
2018-01-25T00:48:09.141Z,1010.11
2018-01-25T00:49:36.603Z,1010.15
2018-01-25T00:51:03.987Z,1010.09
2018-01-25T00:52:31.267Z,1010.14
2018-01-25T00:53:58.546Z,1010.31
2018-01-25T00:55:26.119Z,1010.41
2018-01-25T00:56:53.440Z,1010.41
2018-01-25T00:58:20.715Z,1010.52
2018-01-25T00:59:48.146Z,1010.63
2018-01-25T01:01:15.159Z,1010.57
2018-01-25T01:02:42.491Z,1010.56
2018-01-25T01:04:09.613Z,1010.68
2018-01-25T01:05:37.009Z,1010.84
2018-01-25T01:07:04.357Z,1010.79
2018-01-25T01:08:31.636Z,1010.80
2018-01-25T01:09:58.794Z,1010.83
2018-01-25T01:11:26.120Z,1010.83
2018-01-25T01:12:53.204Z,1010.88
2018-01-25T01:14:20.469Z,1010.97
2018-01-25T01:15:47.972Z,1011.02
2018-01-25T01:17:15.348Z,1011.06
2018-01-25T01:18:42.661Z,1011.07
2018-01-25T01:20:09.806Z,1011.06
2018-01-25T01:21:37.104Z,1011.17
2018-01-25T01:23:04.471Z,1011.23
2018-01-25T01:24:31.563Z,1011.24
2018-01-25T01:25:58.459Z,1011.21
2018-01-25T01:27:25.726Z,1011.20
2018-01-25T01:28:52.546Z,1011.21
2018-01-25T01:30:20.074Z,1011.20
2018-01-25T01:31:46.839Z,1011.16
2018-01-25T01:33:13.889Z,1011.15
2018-01-25T01:34:41.179Z,1011.22
2018-01-25T01:36:08.499Z,1011.26
2018-01-25T01:37:35.887Z,1011.25
2018-01-25T01:39:03.162Z,1011.21
2018-01-25T01:40:30.541Z,1011.20
2018-01-25T01:41:57.543Z,1011.20
2018-01-25T01:43:24.693Z,1011.22
2018-01-25T01:44:51.966Z,1011.31
2018-01-25T01:46:19.265Z,1011.34
2018-01-25T01:47:46.741Z,1011.33
2018-01-25T01:49:14.021Z,1011.28
2018-01-25T01:50:41.307Z,1011.30
2018-01-25T01:52:08.689Z,1011.30
2018-01-25T01:53:36.059Z,1011.29
2018-01-25T01:55:03.408Z,1011.25
2018-01-25T01:56:30.824Z,1011.24
2018-01-25T01:57:58.064Z,1011.21
2018-01-25T01:59:25.621Z,1011.20
2018-01-25T02:00:52.900Z,1011.21
2018-01-25T02:02:20.308Z,1011.25
2018-01-25T02:03:47.390Z,1011.25
2018-01-25T02:05:14.729Z,1011.29
2018-01-25T02:06:42.041Z,1011.31
2018-01-25T02:08:09.143Z,1011.33
2018-01-25T02:09:36.507Z,1011.31
2018-01-25T02:11:03.604Z,1011.34
2018-01-25T02:12:30.769Z,1011.41
2018-01-25T02:13:57.732Z,1011.46
2018-01-25T02:15:25.039Z,1011.47
2018-01-25T02:16:52.482Z,1011.52
2018-01-25T02:18:19.671Z,1011.50
2018-01-25T02:19:47.153Z,1011.56
2018-01-25T02:21:14.239Z,1011.55
2018-01-25T02:22:41.743Z,1011.54
2018-01-25T02:24:09.059Z,1011.57
2018-01-25T02:25:36.310Z,1011.53
2018-01-25T02:27:03.398Z,1011.56
2018-01-25T02:28:30.437Z,1011.58
2018-01-25T02:29:57.220Z,1011.61
2018-01-25T02:31:24.581Z,1011.60
2018-01-25T02:32:51.964Z,1011.64
2018-01-25T02:34:19.339Z,1011.61
2018-01-25T02:35:46.633Z,1011.61
2018-01-25T02:37:13.941Z,1011.62
2018-01-25T02:38:41.217Z,1011.66
2018-01-25T02:40:08.621Z,1011.67
2018-01-25T02:41:35.890Z,1011.64
2018-01-25T02:43:03.309Z,1011.58
2018-01-25T02:44:30.521Z,1011.59
2018-01-25T02:45:57.991Z,1011.61
2018-01-25T02:47:25.149Z,1011.66
2018-01-25T02:48:52.569Z,1011.62
2018-01-25T02:50:20.008Z,1011.62
2018-01-25T02:51:47.352Z,1011.60
2018-01-25T02:53:14.537Z,1011.62
2018-01-25T02:54:41.957Z,1011.59
2018-01-25T02:56:09.280Z,1011.62
2018-01-25T02:57:36.495Z,1011.62
2018-01-25T02:59:03.749Z,1011.56
2018-01-25T03:00:30.943Z,1011.54
2018-01-25T03:01:58.307Z,1011.54
2018-01-25T03:03:25.805Z,1011.56
2018-01-25T03:04:52.918Z,1011.61
2018-01-25T03:06:20.255Z,1011.66
2018-01-25T03:07:47.395Z,1011.73
2018-01-25T03:09:14.566Z,1011.72
2018-01-25T03:10:41.674Z,1011.72
2018-01-25T03:12:08.799Z,1011.74
2018-01-25T03:13:36.095Z,1011.75
2018-01-25T03:15:03.388Z,1011.76
2018-01-25T03:16:30.665Z,1011.80
2018-01-25T03:17:57.900Z,1011.84
2018-01-25T03:19:25.197Z,1011.88
2018-01-25T03:20:52.534Z,1011.88
2018-01-25T03:22:19.522Z,1011.86
2018-01-25T03:23:46.806Z,1011.85
2018-01-25T03:25:14.041Z,1011.79
2018-01-25T03:26:41.298Z,1011.74
2018-01-25T03:28:08.589Z,1011.71
2018-01-25T03:29:35.385Z,1011.68
2018-01-25T03:31:02.518Z,1011.72
2018-01-25T03:32:29.613Z,1011.78
2018-01-25T03:33:56.894Z,1011.85
2018-01-25T03:35:23.966Z,1011.83
2018-01-25T03:36:51.295Z,1011.86
2018-01-25T03:38:18.728Z,1011.87
2018-01-25T03:39:45.963Z,1011.88
2018-01-25T03:41:13.116Z,1011.86
2018-01-25T03:42:40.090Z,1011.85
2018-01-25T03:44:07.247Z,1011.92
2018-01-25T03:45:34.409Z,1011.93
2018-01-25T03:47:01.421Z,1011.91
2018-01-25T03:48:28.760Z,1011.94
2018-01-25T03:49:55.937Z,1011.97
2018-01-25T03:51:23.353Z,1012.01
2018-01-25T03:52:50.538Z,1012.09
2018-01-25T03:54:18.013Z,1012.16
2018-01-25T03:55:45.245Z,1012.20
2018-01-25T03:57:12.747Z,1012.26
2018-01-25T03:58:40.020Z,1012.32
2018-01-25T04:00:07.426Z,1012.33
2018-01-25T04:01:34.572Z,1012.38
2018-01-25T04:03:01.658Z,1012.35
2018-01-25T04:04:29.032Z,1012.33
2018-01-25T04:05:56.353Z,1012.29
2018-01-25T04:07:23.428Z,1012.30
2018-01-25T04:08:50.408Z,1012.25
2018-01-25T04:10:17.130Z,1012.28
2018-01-25T04:11:44.614Z,1012.29
2018-01-25T04:13:11.989Z,1012.29
2018-01-25T04:14:38.990Z,1012.27
2018-01-25T04:16:06.304Z,1012.30
2018-01-25T04:17:33.695Z,1012.36
2018-01-25T04:19:01.121Z,1012.30
2018-01-25T04:20:28.530Z,1012.30
2018-01-25T04:21:55.839Z,1012.29
2018-01-25T04:23:23.251Z,1012.29
2018-01-25T04:24:50.464Z,1012.23
2018-01-25T04:26:17.900Z,1012.24
2018-01-25T04:27:44.947Z,1012.33
2018-01-25T04:29:12.260Z,1012.31
2018-01-25T04:30:39.526Z,1012.18
2018-01-25T04:32:06.853Z,1012.15
2018-01-25T04:33:34.027Z,1012.32
2018-01-25T04:35:00.979Z,1012.44
2018-01-25T04:36:28.242Z,1012.45
2018-01-25T04:37:55.365Z,1012.45
2018-01-25T04:39:22.712Z,1012.50
2018-01-25T04:40:50.082Z,1012.55
2018-01-25T04:42:17.314Z,1012.54
2018-01-25T04:43:44.663Z,1012.53
2018-01-25T04:45:11.616Z,1012.46
2018-01-25T04:46:38.907Z,1012.35
2018-01-25T04:48:06.103Z,1012.42
2018-01-25T04:49:33.199Z,1012.52
2018-01-25T04:51:00.448Z,1012.58
2018-01-25T04:52:27.751Z,1012.64
2018-01-25T04:53:54.711Z,1012.67
2018-01-25T04:55:22.152Z,1012.55
2018-01-25T04:56:49.195Z,1012.57
2018-01-25T04:58:16.409Z,1012.67
2018-01-25T04:59:43.744Z,1012.69
2018-01-25T05:01:11.099Z,1012.68
2018-01-25T05:02:38.384Z,1012.72
2018-01-25T05:04:05.512Z,1012.77
2018-01-25T05:05:32.667Z,1012.83
2018-01-25T05:06:59.696Z,1012.88
2018-01-25T05:08:26.893Z,1012.92
2018-01-25T05:09:54.296Z,1012.96
2018-01-25T05:11:21.635Z,1012.99
2018-01-25T05:12:48.969Z,1013.05
2018-01-25T05:14:15.973Z,1013.07
2018-01-25T05:15:43.103Z,1013.09
2018-01-25T05:17:10.424Z,1013.08
2018-01-25T05:18:37.635Z,1013.11
2018-01-25T05:20:04.795Z,1013.17
2018-01-25T05:21:31.970Z,1013.14
2018-01-25T05:22:59.160Z,1013.07
2018-01-25T05:24:26.582Z,1013.04
2018-01-25T05:25:53.941Z,1013.03
2018-01-25T05:27:21.200Z,1013.04
2018-01-25T05:28:48.314Z,1013.11
2018-01-25T05:30:15.509Z,1013.10
2018-01-25T05:31:42.753Z,1013.15
2018-01-25T05:33:10.014Z,1013.14
2018-01-25T05:34:37.447Z,1013.19
2018-01-25T05:36:04.317Z,1013.21
2018-01-25T05:37:31.790Z,1013.13
2018-01-25T05:38:58.737Z,1013.08
2018-01-25T05:40:26.098Z,1013.23
2018-01-25T05:41:53.234Z,1013.30
2018-01-25T05:43:20.527Z,1013.34
2018-01-25T05:44:47.503Z,1013.36
2018-01-25T05:46:15.001Z,1013.37
2018-01-25T05:47:42.235Z,1013.37
2018-01-25T05:49:09.484Z,1013.35
2018-01-25T05:50:36.441Z,1013.39
2018-01-25T05:52:03.859Z,1013.35
2018-01-25T05:53:30.797Z,1013.33
2018-01-25T05:54:58.373Z,1013.45
2018-01-25T05:56:25.679Z,1013.56
2018-01-25T05:57:52.954Z,1013.52
2018-01-25T05:59:19.916Z,1013.52
2018-01-25T06:00:47.345Z,1013.54
2018-01-25T06:02:14.805Z,1013.35
2018-01-25T06:03:41.853Z,1013.13
2018-01-25T06:05:09.085Z,1013.16
2018-01-25T06:06:36.432Z,1013.41
2018-01-25T06:08:03.583Z,1013.57
2018-01-25T06:09:30.731Z,1013.63
2018-01-25T06:10:58.111Z,1013.65
2018-01-25T06:12:25.358Z,1013.66
2018-01-25T06:13:52.760Z,1013.69
2018-01-25T06:15:20.072Z,1013.64
2018-01-25T06:16:47.099Z,1013.64
2018-01-25T06:18:14.459Z,1013.64
2018-01-25T06:19:41.814Z,1013.64
2018-01-25T06:21:09.237Z,1013.68
2018-01-25T06:22:36.631Z,1013.74
2018-01-25T06:24:04.927Z,1013.77
2018-01-25T06:25:31.047Z,1013.79
2018-01-25T06:26:58.244Z,1013.72
2018-01-25T06:28:25.600Z,1013.76
2018-01-25T06:29:52.642Z,1013.75
2018-01-25T06:31:19.908Z,1013.61
2018-01-25T06:32:47.027Z,1013.53
2018-01-25T06:34:14.391Z,1013.50
2018-01-25T06:35:41.680Z,1013.61
2018-01-25T06:37:08.810Z,1013.67
2018-01-25T06:38:35.834Z,1013.68
2018-01-25T06:40:03.145Z,1013.66
2018-01-25T06:41:30.384Z,1013.64
2018-01-25T06:42:57.765Z,1013.64
2018-01-25T06:44:24.818Z,1013.67
2018-01-25T06:45:52.001Z,1013.68
2018-01-25T06:47:19.321Z,1013.63
2018-01-25T06:48:46.344Z,1013.59
2018-01-25T06:50:13.610Z,1013.53
2018-01-25T06:51:40.819Z,1013.59
2018-01-25T06:53:08.134Z,1013.61
2018-01-25T06:54:35.019Z,1013.64
2018-01-25T06:56:02.164Z,1013.67
2018-01-25T06:57:29.082Z,1013.76
2018-01-25T06:58:56.416Z,1013.84
2018-01-25T07:00:23.648Z,1013.90
2018-01-25T07:01:50.598Z,1013.94
2018-01-25T07:03:18.038Z,1014.05
2018-01-25T07:04:45.348Z,1014.09
2018-01-25T07:06:12.063Z,1014.01
2018-01-25T07:07:39.270Z,1014.04
2018-01-25T07:09:06.478Z,1014.20
2018-01-25T07:10:33.767Z,1014.22
2018-01-25T07:12:01.080Z,1014.18
2018-01-25T07:13:28.272Z,1014.15
2018-01-25T07:14:55.600Z,1014.11
2018-01-25T07:16:22.843Z,1014.04
2018-01-25T07:17:50.192Z,1014.01
2018-01-25T07:19:17.526Z,1014.05
2018-01-25T07:20:44.937Z,1014.04
2018-01-25T07:22:12.332Z,1014.01
2018-01-25T07:23:39.694Z,1014.09
2018-01-25T07:25:06.855Z,1014.17
2018-01-25T07:26:34.259Z,1014.20
2018-01-25T07:28:01.611Z,1014.22
2018-01-25T07:29:28.734Z,1014.27
2018-01-25T07:30:55.895Z,1014.30
2018-01-25T07:32:23.221Z,1014.27
2018-01-25T07:33:50.646Z,1014.21
2018-01-25T07:35:17.862Z,1014.25
2018-01-25T07:36:45.282Z,1014.24
2018-01-25T07:38:12.364Z,1014.29
2018-01-25T07:39:39.703Z,1014.34
2018-01-25T07:41:06.697Z,1014.31
2018-01-25T07:42:33.870Z,1014.27
2018-01-25T07:44:01.128Z,1014.30
2018-01-25T07:45:28.562Z,1014.31
2018-01-25T07:46:56.016Z,1014.29
2018-01-25T07:48:23.235Z,1014.28
2018-01-25T07:49:50.546Z,1014.27
2018-01-25T07:51:17.967Z,1014.27
2018-01-25T07:52:44.708Z,1014.31
2018-01-25T07:54:11.847Z,1014.33
2018-01-25T07:55:39.244Z,1014.33
2018-01-25T07:57:06.153Z,1014.36
2018-01-25T07:58:32.940Z,1014.40
2018-01-25T07:59:59.897Z,1014.44
2018-01-25T08:01:26.998Z,1014.45
2018-01-25T08:02:54.126Z,1014.50
2018-01-25T08:04:21.320Z,1014.55
2018-01-25T08:05:48.762Z,1014.59
2018-01-25T08:07:16.112Z,1014.63
2018-01-25T08:08:43.431Z,1014.65
2018-01-25T08:10:10.718Z,1014.67
2018-01-25T08:11:37.611Z,1014.70
2018-01-25T08:13:04.910Z,1014.73
2018-01-25T08:14:32.202Z,1014.72
2018-01-25T08:15:59.498Z,1014.76
2018-01-25T08:17:26.824Z,1014.79
2018-01-25T08:18:53.791Z,1014.78
2018-01-25T08:20:20.990Z,1014.79
2018-01-25T08:21:48.392Z,1014.78
2018-01-25T08:23:15.410Z,1014.75
2018-01-25T08:24:42.512Z,1014.72
2018-01-25T08:26:09.911Z,1014.74
2018-01-25T08:27:36.723Z,1014.74
2018-01-25T08:29:03.752Z,1014.73
2018-01-25T08:30:31.100Z,1014.70
2018-01-25T08:31:58.228Z,1014.72
2018-01-25T08:33:24.829Z,1014.75
2018-01-25T08:34:51.500Z,1014.76
2018-01-25T08:36:18.951Z,1014.79
2018-01-25T08:37:46.077Z,1014.84
2018-01-25T08:39:13.473Z,1014.81
2018-01-25T08:40:40.611Z,1014.76
2018-01-25T08:42:07.949Z,1014.75
2018-01-25T08:43:35.231Z,1014.79
2018-01-25T08:45:02.202Z,1014.82
2018-01-25T08:46:29.023Z,1014.84
2018-01-25T08:47:56.084Z,1014.87
2018-01-25T08:49:23.309Z,1014.86
2018-01-25T08:50:50.621Z,1014.87
2018-01-25T08:52:18.012Z,1014.84
2018-01-25T08:53:45.238Z,1014.91
2018-01-25T08:55:12.389Z,1014.94
2018-01-25T08:56:39.680Z,1014.97
2018-01-25T08:58:06.618Z,1014.97
2018-01-25T08:59:33.811Z,1014.99
2018-01-25T09:01:01.204Z,1015.02
2018-01-25T09:02:28.293Z,1015.03
2018-01-25T09:03:55.204Z,1015.03
2018-01-25T09:05:22.509Z,1015.05
2018-01-25T09:06:49.927Z,1015.06
2018-01-25T09:08:17.091Z,1015.09
2018-01-25T09:09:44.300Z,1015.09
2018-01-25T09:11:11.634Z,1015.04
2018-01-25T09:12:38.820Z,1014.98
2018-01-25T09:14:06.215Z,1015.00
2018-01-25T09:15:33.286Z,1015.00
2018-01-25T09:17:00.672Z,1015.00
2018-01-25T09:18:27.898Z,1015.02
2018-01-25T09:19:55.196Z,1015.02
2018-01-25T09:21:22.209Z,1015.04
2018-01-25T09:22:49.567Z,1015.04
2018-01-25T09:24:16.674Z,1015.10
2018-01-25T09:25:43.924Z,1015.12
2018-01-25T09:27:10.966Z,1015.15
2018-01-25T09:28:38.162Z,1015.18
2018-01-25T09:30:05.342Z,1015.17
2018-01-25T09:31:32.759Z,1015.19
2018-01-25T09:32:59.345Z,1015.25
2018-01-25T09:34:26.609Z,1015.30
2018-01-25T09:35:54.030Z,1015.33
2018-01-25T09:37:21.306Z,1015.37
2018-01-25T09:38:48.849Z,1015.40
2018-01-25T09:40:16.203Z,1015.44
2018-01-25T09:41:43.235Z,1015.45
2018-01-25T09:43:10.547Z,1015.46
2018-01-25T09:44:37.892Z,1015.46
2018-01-25T09:46:04.803Z,1015.48
2018-01-25T09:47:32.173Z,1015.49
2018-01-25T09:48:59.144Z,1015.47
2018-01-25T09:50:26.484Z,1015.47
2018-01-25T09:51:53.619Z,1015.51
2018-01-25T09:53:21.023Z,1015.55
2018-01-25T09:54:47.859Z,1015.55
2018-01-25T09:56:15.307Z,1015.60
2018-01-25T09:57:42.517Z,1015.60
2018-01-25T09:59:09.942Z,1015.58
2018-01-25T10:00:37.227Z,1015.57
2018-01-25T10:02:04.512Z,1015.60
2018-01-25T10:03:31.834Z,1015.56
2018-01-25T10:04:59.137Z,1015.60
2018-01-25T10:06:26.526Z,1015.60
2018-01-25T10:07:53.833Z,1015.65
2018-01-25T10:09:21.068Z,1015.65
2018-01-25T10:10:48.519Z,1015.65
2018-01-25T10:12:15.852Z,1015.67
2018-01-25T10:13:43.299Z,1015.69
2018-01-25T10:15:10.522Z,1015.66
2018-01-25T10:16:37.769Z,1015.67
2018-01-25T10:18:04.823Z,1015.66
2018-01-25T10:19:32.153Z,1015.71
2018-01-25T10:20:59.481Z,1015.70
2018-01-25T10:22:26.397Z,1015.67
2018-01-25T10:23:53.719Z,1015.66
2018-01-25T10:25:20.991Z,1015.65
2018-01-25T10:26:48.410Z,1015.69
2018-01-25T10:28:15.733Z,1015.71
2018-01-25T10:29:43.106Z,1015.73
2018-01-25T10:31:10.523Z,1015.72
2018-01-25T10:32:37.779Z,1015.72
2018-01-25T10:34:04.943Z,1015.68
2018-01-25T10:35:32.143Z,1015.71
2018-01-25T10:36:59.390Z,1015.69
2018-01-25T10:38:26.804Z,1015.71
2018-01-25T10:39:54.079Z,1015.69
2018-01-25T10:41:21.186Z,1015.68
2018-01-25T10:42:48.305Z,1015.68
2018-01-25T10:44:15.789Z,1015.64
2018-01-25T10:45:42.965Z,1015.64
2018-01-25T10:47:10.332Z,1015.60
2018-01-25T10:48:37.519Z,1015.59
2018-01-25T10:50:04.717Z,1015.60
2018-01-25T10:51:31.837Z,1015.61
2018-01-25T10:52:58.980Z,1015.62
2018-01-25T10:54:26.381Z,1015.61
2018-01-25T10:55:53.832Z,1015.60
2018-01-25T10:57:20.957Z,1015.57
2018-01-25T10:58:48.054Z,1015.58
2018-01-25T11:00:15.548Z,1015.61
2018-01-25T11:01:42.795Z,1015.57
2018-01-25T11:03:10.082Z,1015.58
2018-01-25T11:04:37.181Z,1015.59
2018-01-25T11:06:04.223Z,1015.57
2018-01-25T11:07:31.304Z,1015.57
2018-01-25T11:08:58.711Z,1015.62
2018-01-25T11:10:25.801Z,1015.67
2018-01-25T11:11:53.141Z,1015.68
2018-01-25T11:13:20.154Z,1015.68
2018-01-25T11:14:47.573Z,1015.70
2018-01-25T11:16:14.911Z,1015.71
2018-01-25T11:17:42.189Z,1015.72
2018-01-25T11:19:09.551Z,1015.75
2018-01-25T11:20:36.496Z,1015.71
2018-01-25T11:22:03.769Z,1015.72
2018-01-25T11:23:31.003Z,1015.68
2018-01-25T11:24:58.373Z,1015.66
2018-01-25T11:26:25.626Z,1015.66
2018-01-25T11:27:52.980Z,1015.70
2018-01-25T11:29:20.375Z,1015.68
2018-01-25T11:30:47.644Z,1015.65
2018-01-25T11:32:14.740Z,1015.65
2018-01-25T11:33:42.027Z,1015.64
2018-01-25T11:35:09.123Z,1015.66
2018-01-25T11:36:36.512Z,1015.65
2018-01-25T11:38:03.648Z,1015.66
2018-01-25T11:39:30.680Z,1015.67
2018-01-25T11:40:57.913Z,1015.70
2018-01-25T11:42:25.056Z,1015.69
2018-01-25T11:43:51.996Z,1015.71
2018-01-25T11:45:19.300Z,1015.71
2018-01-25T11:46:46.721Z,1015.71
2018-01-25T11:48:13.942Z,1015.68
2018-01-25T11:49:41.157Z,1015.74
2018-01-25T11:51:08.463Z,1015.74
2018-01-25T11:52:35.610Z,1015.74
2018-01-25T11:54:02.758Z,1015.73
2018-01-25T11:55:29.970Z,1015.79
2018-01-25T11:56:57.350Z,1015.79
2018-01-25T11:58:24.380Z,1015.79
2018-01-25T11:59:51.634Z,1015.77
2018-01-25T12:01:18.931Z,1015.75
2018-01-25T12:02:46.248Z,1015.73
2018-01-25T12:04:13.686Z,1015.71
2018-01-25T12:05:40.826Z,1015.70
2018-01-25T12:07:08.145Z,1015.70
2018-01-25T12:08:35.253Z,1015.68
2018-01-25T12:10:02.443Z,1015.62
2018-01-25T12:11:29.320Z,1015.61
2018-01-25T12:12:56.809Z,1015.56
2018-01-25T12:14:24.042Z,1015.60
2018-01-25T12:15:51.216Z,1015.63
2018-01-25T12:17:18.562Z,1015.66
2018-01-25T12:18:45.936Z,1015.63
2018-01-25T12:20:13.130Z,1015.62
2018-01-25T12:21:40.302Z,1015.62
2018-01-25T12:23:07.373Z,1015.65
2018-01-25T12:24:34.584Z,1015.65
2018-01-25T12:26:01.977Z,1015.67
2018-01-25T12:27:29.168Z,1015.66
2018-01-25T12:28:56.581Z,1015.63
2018-01-25T12:30:24.003Z,1015.64
2018-01-25T12:31:51.317Z,1015.64
2018-01-25T12:33:18.653Z,1015.60
2018-01-25T12:34:45.691Z,1015.61
2018-01-25T12:36:13.160Z,1015.66
2018-01-25T12:37:40.332Z,1015.67
2018-01-25T12:39:07.790Z,1015.68
2018-01-25T12:40:35.092Z,1015.67
2018-01-25T12:42:02.357Z,1015.66
2018-01-25T12:43:29.673Z,1015.62
2018-01-25T12:44:56.784Z,1015.60
2018-01-25T12:46:24.086Z,1015.63
2018-01-25T12:47:51.531Z,1015.59
2018-01-25T12:49:18.790Z,1015.58
2018-01-25T12:50:45.785Z,1015.53
2018-01-25T12:52:12.932Z,1015.56
2018-01-25T12:53:40.274Z,1015.55
2018-01-25T12:55:07.502Z,1015.55
2018-01-25T12:56:34.878Z,1015.56
2018-01-25T12:58:02.264Z,1015.55
2018-01-25T12:59:29.277Z,1015.54
2018-01-25T13:00:56.661Z,1015.54
2018-01-25T13:02:24.058Z,1015.53
2018-01-25T13:03:51.516Z,1015.52
2018-01-25T13:05:18.519Z,1015.56
2018-01-25T13:06:46.021Z,1015.63
2018-01-25T13:08:13.171Z,1015.65
2018-01-25T13:09:40.637Z,1015.68
2018-01-25T13:11:07.957Z,1015.66
2018-01-25T13:12:35.079Z,1015.61
2018-01-25T13:14:02.360Z,1015.60
2018-01-25T13:15:29.462Z,1015.66
2018-01-25T13:16:56.922Z,1015.67
2018-01-25T13:18:24.301Z,1015.63
2018-01-25T13:19:51.552Z,1015.58
2018-01-25T13:21:18.932Z,1015.57
2018-01-25T13:22:46.254Z,1015.58
2018-01-25T13:24:13.669Z,1015.59
2018-01-25T13:25:40.826Z,1015.60
2018-01-25T13:27:07.859Z,1015.59
2018-01-25T13:28:35.221Z,1015.54
2018-01-25T13:30:02.450Z,1015.56
2018-01-25T13:31:29.705Z,1015.60
2018-01-25T13:32:57.133Z,1015.67
2018-01-25T13:34:24.498Z,1015.68
2018-01-25T13:35:51.415Z,1015.69
2018-01-25T13:37:18.529Z,1015.72
2018-01-25T13:38:45.887Z,1015.71
2018-01-25T13:40:13.094Z,1015.75
2018-01-25T13:41:40.527Z,1015.80
2018-01-25T13:43:07.649Z,1015.82
2018-01-25T13:44:34.762Z,1015.80
2018-01-25T13:46:01.872Z,1015.68
2018-01-25T13:47:29.220Z,1015.62
2018-01-25T13:48:56.283Z,1015.66
2018-01-25T13:50:23.611Z,1015.76
2018-01-25T13:51:50.700Z,1015.75
2018-01-25T13:53:17.886Z,1015.78
2018-01-25T13:54:44.910Z,1015.82
2018-01-25T13:56:12.256Z,1015.78
2018-01-25T13:57:39.612Z,1015.74
2018-01-25T13:59:06.699Z,1015.72
2018-01-25T14:00:33.827Z,1015.71
2018-01-25T14:02:01.126Z,1015.72
2018-01-25T14:03:28.308Z,1015.71
2018-01-25T14:04:55.719Z,1015.70
2018-01-25T14:06:23.025Z,1015.73
2018-01-25T14:07:50.372Z,1015.74
2018-01-25T14:09:17.617Z,1015.73
2018-01-25T14:10:45.021Z,1015.76
2018-01-25T14:12:12.303Z,1015.80
2018-01-25T14:13:39.490Z,1015.79
2018-01-25T14:15:06.589Z,1015.81
2018-01-25T14:16:33.647Z,1015.88
2018-01-25T14:18:00.893Z,1015.92
2018-01-25T14:19:27.906Z,1015.86
2018-01-25T14:20:55.304Z,1015.84
2018-01-25T14:22:22.667Z,1015.84
2018-01-25T14:23:50.059Z,1015.88
2018-01-25T14:25:17.311Z,1015.89
2018-01-25T14:26:44.473Z,1015.88
2018-01-25T14:28:11.809Z,1015.90
2018-01-25T14:29:39.119Z,1015.93
2018-01-25T14:31:06.080Z,1015.95
2018-01-25T14:32:33.341Z,1015.86
2018-01-25T14:34:00.450Z,1015.82
2018-01-25T14:35:27.946Z,1015.82
2018-01-25T14:36:55.019Z,1015.77
2018-01-25T14:38:22.374Z,1015.78
2018-01-25T14:39:49.271Z,1015.75
2018-01-25T14:41:16.561Z,1015.68
2018-01-25T14:42:43.898Z,1015.67
2018-01-25T14:44:11.180Z,1015.70
2018-01-25T14:45:38.435Z,1015.64
2018-01-25T14:47:05.581Z,1015.62
2018-01-25T14:48:32.535Z,1015.64
2018-01-25T14:49:59.909Z,1015.65
2018-01-25T14:51:27.270Z,1015.63
2018-01-25T14:52:54.614Z,1015.63
2018-01-25T14:54:21.904Z,1015.58
2018-01-25T14:55:49.205Z,1015.57
2018-01-25T14:57:16.432Z,1015.55
2018-01-25T14:58:43.664Z,1015.57
2018-01-25T15:00:11.030Z,1015.58
2018-01-25T15:01:38.479Z,1015.59
2018-01-25T15:03:05.557Z,1015.64
2018-01-25T15:04:32.984Z,1015.67
2018-01-25T15:06:00.087Z,1015.68
2018-01-25T15:07:27.289Z,1015.69
2018-01-25T15:08:54.656Z,1015.68
2018-01-25T15:10:21.860Z,1015.70
2018-01-25T15:11:49.154Z,1015.72
2018-01-25T15:13:16.283Z,1015.72
2018-01-25T15:14:43.694Z,1015.76
2018-01-25T15:16:10.908Z,1015.75
2018-01-25T15:17:38.187Z,1015.73
2018-01-25T15:19:05.382Z,1015.76
2018-01-25T15:20:32.698Z,1015.75
2018-01-25T15:21:59.757Z,1015.79
2018-01-25T15:23:27.167Z,1015.81
2018-01-25T15:24:54.384Z,1015.81
2018-01-25T15:26:21.642Z,1015.86
2018-01-25T15:27:49.027Z,1015.95
2018-01-25T15:29:16.506Z,1016.00
2018-01-25T15:30:43.816Z,1016.00
2018-01-25T15:32:11.031Z,1016.03
2018-01-25T15:33:38.199Z,1016.05
2018-01-25T15:35:05.495Z,1016.05
2018-01-25T15:36:32.603Z,1016.03
2018-01-25T15:37:59.748Z,1016.00
2018-01-25T15:39:27.090Z,1015.96
2018-01-25T15:40:54.404Z,1015.94
2018-01-25T15:42:21.452Z,1015.93
2018-01-25T15:43:48.688Z,1015.95
2018-01-25T15:45:15.905Z,1015.97
2018-01-25T15:46:43.540Z,1016.02
2018-01-25T15:48:11.001Z,1016.08
2018-01-25T15:49:37.868Z,1016.11
2018-01-25T15:51:04.930Z,1016.09
2018-01-25T15:52:32.130Z,1016.11
2018-01-25T15:53:59.378Z,1016.14
2018-01-25T15:55:26.819Z,1016.18
2018-01-25T15:56:54.147Z,1016.20
2018-01-25T15:58:21.358Z,1016.23
2018-01-25T15:59:48.577Z,1016.26
2018-01-25T16:01:15.927Z,1016.24
2018-01-25T16:02:43.106Z,1016.28
2018-01-25T16:04:10.368Z,1016.28
2018-01-25T16:05:37.801Z,1016.26
2018-01-25T16:07:04.904Z,1016.30
2018-01-25T16:08:32.147Z,1016.33
2018-01-25T16:09:59.447Z,1016.33
2018-01-25T16:11:26.586Z,1016.31
2018-01-25T16:12:53.676Z,1016.30
2018-01-25T16:14:20.941Z,1016.30
2018-01-25T16:15:48.147Z,1016.30
2018-01-25T16:17:15.493Z,1016.27
2018-01-25T16:18:42.761Z,1016.25
2018-01-25T16:20:09.978Z,1016.26
2018-01-25T16:21:37.069Z,1016.27
2018-01-25T16:23:04.495Z,1016.23
2018-01-25T16:24:31.348Z,1016.23
2018-01-25T16:25:58.643Z,1016.23
2018-01-25T16:27:26.050Z,1016.23
2018-01-25T16:28:53.475Z,1016.22
2018-01-25T16:30:20.559Z,1016.17
2018-01-25T16:31:48.010Z,1016.14
2018-01-25T16:33:15.377Z,1016.12
2018-01-25T16:34:42.472Z,1016.08
2018-01-25T16:36:09.729Z,1016.08
2018-01-25T16:37:37.085Z,1016.10
2018-01-25T16:39:04.208Z,1016.13
2018-01-25T16:40:31.481Z,1016.14
2018-01-25T16:41:58.917Z,1016.17
2018-01-25T16:43:26.214Z,1016.18
2018-01-25T16:44:53.546Z,1016.17
2018-01-25T16:46:20.782Z,1016.18
2018-01-25T16:47:48.206Z,1016.18
2018-01-25T16:49:15.289Z,1016.20
2018-01-25T16:50:42.612Z,1016.21
2018-01-25T16:52:09.867Z,1016.19
2018-01-25T16:53:36.993Z,1016.19
2018-01-25T16:55:04.345Z,1016.22
2018-01-25T16:56:31.794Z,1016.24
2018-01-25T16:57:58.819Z,1016.28
2018-01-25T16:59:26.230Z,1016.31
2018-01-25T17:00:53.667Z,1016.31
2018-01-25T17:02:20.893Z,1016.34
2018-01-25T17:03:48.171Z,1016.33
2018-01-25T17:05:15.548Z,1016.29
2018-01-25T17:06:42.616Z,1016.28
2018-01-25T17:08:09.991Z,1016.30
2018-01-25T17:09:37.096Z,1016.28
2018-01-25T17:11:04.410Z,1016.26
2018-01-25T17:12:31.504Z,1016.25
2018-01-25T17:13:58.492Z,1016.25
2018-01-25T17:15:25.848Z,1016.23
2018-01-25T17:16:53.011Z,1016.20
2018-01-25T17:18:20.338Z,1016.20
2018-01-25T17:19:47.400Z,1016.22
2018-01-25T17:21:14.758Z,1016.25
2018-01-25T17:22:41.796Z,1016.31
2018-01-25T17:24:09.207Z,1016.37
2018-01-25T17:25:36.364Z,1016.40
2018-01-25T17:27:03.602Z,1016.44
2018-01-25T17:28:30.872Z,1016.43
2018-01-25T17:29:57.972Z,1016.38
2018-01-25T17:31:25.271Z,1016.41
2018-01-25T17:32:52.587Z,1016.43
2018-01-25T17:34:20.061Z,1016.44